Time;durP1;ratioP1;P1;durP2;ratioP2;P2;SDS_P1;SDS_P2;PMS_P1;PMS_P2;Temp;Humidity;BMP_temperature;BMP_pressure;BME280_temperature;BME280_humidity;BME280_pressure;Samples;Min_cycle;Max_cycle;Signal;HPM_P1;HPM_P2
2022/03/23 00:02:19;;;;;;;31.45;19.20;;;4.00;42.10;;;;;;5113699;28;20055;-20
2022/03/23 00:04:45;;;;;;;34.70;19.35;;;4.00;42.20;;;;;;5114142;28;20082;-20
2022/03/23 00:07:11;;;;;;;27.63;16.35;;;4.00;42.30;;;;;;5113906;28;20532;-20
2022/03/23 00:09:37;;;;;;;29.15;16.65;;;3.90;41.80;;;;;;5114793;28;20024;-22
2022/03/23 00:12:03;;;;;;;32.00;19.80;;;3.90;41.60;;;;;;5113249;28;20073;-20
2022/03/23 00:14:29;;;;;;;22.20;13.02;;;3.90;42.00;;;;;;5114001;28;20075;-20
2022/03/23 00:16:55;;;;;;;22.02;11.45;;;3.90;41.70;;;;;;5113492;28;20513;-20
2022/03/23 00:19:21;;;;;;;45.42;25.58;;;3.80;41.10;;;;;;5113685;28;20024;-20
2022/03/23 00:21:47;;;;;;;21.95;13.55;;;3.80;41.70;;;;;;5114060;28;20028;-20
2022/03/23 00:24:13;;;;;;;47.85;28.35;;;3.80;41.70;;;;;;5113445;28;20541;-21
2022/03/23 00:26:39;;;;;;;39.50;20.83;;;3.70;45.00;;;;;;5113945;28;20036;-20
2022/03/23 00:29:06;;;;;;;25.00;13.65;;;3.60;44.40;;;;;;5113758;28;20566;-20
2022/03/23 00:31:32;;;;;;;30.02;17.17;;;3.60;42.20;;;;;;5113605;28;20059;-20
2022/03/23 00:33:58;;;;;;;43.90;24.85;;;3.50;42.50;;;;;;5113464;28;20054;-20
2022/03/23 00:36:24;;;;;;;25.83;13.70;;;3.40;42.30;;;;;;5113476;28;20027;-20
2022/03/23 00:38:53;;;;;;;19.00;10.70;;;3.30;42.10;;;;;;5113534;28;20060;-20
2022/03/23 00:41:20;;;;;;;29.42;16.45;;;3.20;41.60;;;;;;5113532;28;20032;-20
2022/03/23 00:43:48;;;;;;;19.77;10.45;;;3.20;43.20;;;;;;5113627;28;20023;-20
2022/03/23 00:46:15;;;;;;;25.45;13.10;;;3.20;42.10;;;;;;5113504;28;20080;-22
2022/03/23 00:48:42;;;;;;;26.08;15.02;;;3.10;41.90;;;;;;5113639;28;20027;-20
2022/03/23 00:51:08;;;;;;;43.17;24.13;;;3.10;42.30;;;;;;5113683;28;20526;-20
2022/03/23 00:53:34;;;;;;;43.85;21.65;;;3.00;43.40;;;;;;5113427;28;20577;-20
2022/03/23 00:56:01;;;;;;;22.30;12.05;;;2.90;42.90;;;;;;5113702;28;20053;-20
2022/03/23 00:58:27;;;;;;;19.40;10.43;;;2.90;42.70;;;;;;5113261;28;20128;-20
2022/03/23 01:00:53;;;;;;;38.70;17.80;;;2.90;42.30;;;;;;5113393;28;20433;-20
2022/03/23 01:03:19;;;;;;;18.85;10.55;;;2.80;42.00;;;;;;5113150;28;20072;-20
2022/03/23 01:05:46;;;;;;;37.22;21.05;;;2.80;42.40;;;;;;5113586;28;20036;-20
2022/03/23 01:08:11;;;;;;;18.65;10.23;;;2.80;42.40;;;;;;5113509;28;20080;-20
2022/03/23 01:10:38;;;;;;;34.90;20.13;;;2.70;42.20;;;;;;5113167;28;20031;-20
2022/03/23 01:13:04;;;;;;;41.00;24.92;;;2.60;41.90;;;;;;5113547;28;20020;-20
2022/03/23 01:15:30;;;;;;;23.90;13.00;;;2.60;43.20;;;;;;5113205;28;20111;-20
2022/03/23 01:17:56;;;;;;;26.70;14.75;;;2.60;42.90;;;;;;5112851;28;20048;-20
2022/03/23 01:20:22;;;;;;;23.20;13.70;;;2.60;42.70;;;;;;5112942;28;20031;-21
2022/03/23 01:22:50;;;;;;;25.80;14.95;;;2.50;42.60;;;;;;5114399;28;20085;-20
2022/03/23 01:25:18;;;;;;;19.58;11.27;;;2.50;43.60;;;;;;5117048;28;20118;-20
2022/03/23 01:27:45;;;;;;;15.85;8.55;;;2.40;43.50;;;;;;5116974;28;20528;-20
2022/03/23 01:30:14;;;;;;;26.88;13.90;;;2.40;42.40;;;;;;5117255;28;20031;-20
2022/03/23 01:32:41;;;;;;;27.40;14.70;;;2.40;42.90;;;;;;5116823;28;20114;-20
2022/03/23 01:35:09;;;;;;;23.83;10.93;;;2.30;42.80;;;;;;5116833;28;20506;-20
2022/03/23 01:37:36;;;;;;;19.25;10.82;;;2.30;43.00;;;;;;5117418;28;20020;-20
2022/03/23 01:40:07;;;;;;;20.85;11.38;;;2.30;42.90;;;;;;5116725;28;20391;-20
2022/03/23 01:42:33;;;;;;;21.40;11.15;;;2.30;42.60;;;;;;5116840;28;20965;-21
2022/03/23 01:44:59;;;;;;;19.40;11.85;;;2.20;42.70;;;;;;5116959;28;20032;-20
2022/03/23 01:47:25;;;;;;;22.13;12.05;;;2.20;43.10;;;;;;5116503;28;20027;-21
2022/03/23 01:49:56;;;;;;;19.92;12.00;;;2.10;43.30;;;;;;5115372;28;20028;-20
2022/03/23 01:52:25;;;;;;;30.02;18.63;;;2.10;42.60;;;;;;5116618;28;20024;-21
2022/03/23 01:54:52;;;;;;;23.50;13.93;;;2.10;43.70;;;;;;5116812;28;20024;-20
2022/03/23 01:57:20;;;;;;;22.65;13.27;;;2.10;43.90;;;;;;5116421;28;20020;-20
2022/03/23 01:59:47;;;;;;;26.30;16.63;;;2.00;44.20;;;;;;5116419;28;20091;-20
2022/03/23 02:02:13;;;;;;;22.52;12.70;;;2.00;44.60;;;;;;5116640;28;20019;-20
2022/03/23 02:04:40;;;;;;;20.15;10.43;;;2.00;44.10;;;;;;5116129;28;20538;-20
2022/03/23 02:07:07;;;;;;;21.50;11.05;;;1.90;44.80;;;;;;5116572;28;20032;-20
2022/03/23 02:09:34;;;;;;;41.30;25.95;;;1.90;43.90;;;;;;5116483;28;20028;-20
2022/03/23 02:12:08;;;;;;;38.33;23.02;;;1.90;43.80;;;;;;5116474;27;20035;-20
2022/03/23 02:14:34;;;;;;;;;;;1.90;44.70;;;;;;5116735;28;20031;-21
2022/03/23 02:17:00;;;;;;;22.80;12.00;;;1.80;47.40;;;;;;5115693;28;20379;-21
2022/03/23 02:19:28;;;;;;;30.88;16.95;;;1.80;45.30;;;;;;5115847;28;20034;-20
2022/03/23 02:21:54;;;;;;;21.67;12.88;;;1.80;45.20;;;;;;5116237;28;20028;-20
2022/03/23 02:24:25;;;;;;;17.73;9.70;;;1.80;44.60;;;;;;5115780;28;20063;-21
2022/03/23 02:26:52;;;;;;;23.95;12.15;;;1.80;44.00;;;;;;5115826;28;20552;-20
2022/03/23 02:29:20;;;;;;;15.88;9.70;;;1.70;44.10;;;;;;5115886;28;20503;-20
2022/03/23 02:31:46;;;;;;;16.30;9.20;;;1.70;44.40;;;;;;5115763;28;20031;-20
2022/03/23 02:34:12;;;;;;;17.65;8.73;;;1.70;43.80;;;;;;5115120;28;20487;-21
2022/03/23 02:36:38;;;;;;;34.80;18.95;;;1.60;44.00;;;;;;5115937;28;20071;-21
2022/03/23 02:39:04;;;;;;;32.38;18.65;;;1.60;44.60;;;;;;5116109;28;20055;-21
2022/03/23 02:41:31;;;;;;;42.78;24.20;;;1.60;44.70;;;;;;5115789;27;20059;-21
2022/03/23 02:43:57;;;;;;;38.15;21.23;;;1.60;47.40;;;;;;5115454;28;20494;-20
2022/03/23 02:46:23;;;;;;;36.65;19.67;;;1.60;46.70;;;;;;5115346;28;20098;-20
2022/03/23 02:48:53;;;;;;;25.65;14.60;;;1.50;46.80;;;;;;5115626;28;20050;-20
2022/03/23 02:51:19;;;;;;;29.60;15.43;;;1.50;45.50;;;;;;5115415;28;20016;-21
2022/03/23 03:02:36;;;;;;;29.05;15.43;;;1.40;44.20;;;;;;5114991;28;20081;-21
2022/03/23 03:05:07;;;;;;;24.45;13.80;;;1.40;45.70;;;;;;5115486;28;20031;-20
2022/03/23 03:10:20;;;;;;;15.50;8.52;;;1.30;46.60;;;;;;5114910;28;20084;-20
2022/03/23 03:12:47;;;;;;;23.90;12.60;;;1.30;45.50;;;;;;5115939;28;20023;-21
2022/03/23 03:15:14;;;;;;;17.60;9.65;;;1.20;45.30;;;;;;5114886;28;20436;-20
2022/03/23 03:17:41;;;;;;;14.48;8.23;;;1.20;44.80;;;;;;5114583;28;20038;-20
2022/03/23 03:20:09;;;;;;;12.43;7.18;;;1.20;44.80;;;;;;5114775;28;20483;-20
2022/03/23 03:22:38;;;;;;;12.07;7.25;;;1.10;45.00;;;;;;5114852;28;20024;-20
2022/03/23 03:25:05;;;;;;;12.52;6.93;;;1.10;44.50;;;;;;5115034;28;20091;-20
2022/03/23 03:27:34;;;;;;;18.85;9.77;;;1.10;44.60;;;;;;5114943;28;20027;-20
2022/03/23 03:30:06;;;;;;;16.52;9.02;;;1.00;45.20;;;;;;5114612;28;20024;-20
2022/03/23 03:32:32;;;;;;;13.27;7.20;;;1.00;45.90;;;;;;5114672;28;20031;-20
2022/03/23 03:34:58;;;;;;;17.52;9.15;;;1.00;44.90;;;;;;5114834;28;20028;-20
2022/03/23 03:37:24;;;;;;;24.92;14.90;;;0.90;45.00;;;;;;5114694;28;20024;-21
2022/03/23 03:39:50;;;;;;;24.52;14.57;;;0.90;45.50;;;;;;5114767;28;20084;-20
2022/03/23 03:42:18;;;;;;;30.77;19.00;;;0.90;45.90;;;;;;5114518;28;20027;-21
2022/03/23 03:44:44;;;;;;;21.92;13.02;;;0.90;45.80;;;;;;5114137;28;20479;-20
2022/03/23 03:47:11;;;;;;;15.00;9.52;;;0.80;48.40;;;;;;5114015;28;20047;-20
2022/03/23 03:49:38;;;;;;;20.15;11.25;;;0.80;46.60;;;;;;5114692;27;20041;-20
2022/03/23 03:52:05;;;;;;;34.80;19.90;;;0.80;45.60;;;;;;5114404;28;20502;-20
2022/03/23 03:54:32;;;;;;;20.05;11.52;;;0.80;46.50;;;;;;5114027;28;20055;-21
2022/03/23 03:56:58;;;;;;;23.52;13.45;;;0.80;46.20;;;;;;5114417;28;20112;-20
2022/03/23 03:59:24;;;;;;;30.77;17.88;;;0.80;45.50;;;;;;5112878;28;20028;-20
2022/03/23 04:01:50;;;;;;;24.48;14.55;;;0.80;47.70;;;;;;5114029;28;20088;-20
2022/03/23 04:04:16;;;;;;;44.95;23.92;;;0.80;49.00;;;;;;5113921;28;20024;-20
2022/03/23 04:06:42;;;;;;;41.45;22.02;;;0.80;47.90;;;;;;5114269;28;20024;-20
2022/03/23 04:09:08;;;;;;;46.88;22.60;;;0.70;52.60;;;;;;5114268;28;20032;-20
2022/03/23 04:11:35;;;;;;;43.95;25.20;;;0.80;50.10;;;;;;5114181;28;20027;-20
2022/03/23 04:14:02;;;;;;;23.35;12.80;;;0.80;51.20;;;;;;5114204;28;20095;-20
2022/03/23 04:16:28;;;;;;;32.47;18.58;;;0.70;50.30;;;;;;5113677;28;20020;-20
2022/03/23 04:18:54;;;;;;;25.52;14.80;;;0.80;48.50;;;;;;5113540;28;20181;-20
2022/03/23 04:21:20;;;;;;;52.92;25.98;;;0.80;49.60;;;;;;5114085;28;20103;-20
2022/03/23 04:23:46;;;;;;;32.65;18.23;;;0.80;49.50;;;;;;5114570;28;20035;-20
2022/03/23 04:26:12;;;;;;;32.90;19.08;;;0.80;50.30;;;;;;5114038;28;20028;-20
2022/03/23 04:28:39;;;;;;;29.77;15.73;;;0.80;50.70;;;;;;5114004;28;20478;-20
2022/03/23 04:31:07;;;;;;;19.75;10.27;;;0.80;48.80;;;;;;5113648;28;20030;-20
2022/03/23 04:33:33;;;;;;;22.00;12.20;;;0.80;48.50;;;;;;5113478;28;20437;-20
2022/03/23 04:35:59;;;;;;;18.30;8.30;;;0.90;48.30;;;;;;5113611;28;20100;-20
2022/03/23 04:38:26;;;;;;;25.90;14.07;;;0.80;47.90;;;;;;5113695;28;20024;-20
2022/03/23 04:40:53;;;;;;;15.20;8.88;;;0.90;48.00;;;;;;5113783;28;20042;-21
2022/03/23 04:43:19;;;;;;;17.10;9.50;;;0.80;47.40;;;;;;5114069;28;20050;-20
2022/03/23 04:45:45;;;;;;;26.98;14.32;;;0.80;47.60;;;;;;5113531;28;20032;-20
2022/03/23 04:48:11;;;;;;;24.63;13.68;;;0.80;48.60;;;;;;5113498;28;20080;-20
2022/03/23 04:50:37;;;;;;;15.68;9.52;;;0.80;48.50;;;;;;5113180;28;20034;-20
2022/03/23 04:53:03;;;;;;;16.48;8.95;;;0.80;48.20;;;;;;5112578;28;20103;-20
2022/03/23 04:55:29;;;;;;;14.68;8.10;;;0.70;48.00;;;;;;5113365;28;20059;-20
2022/03/23 04:57:56;;;;;;;12.25;7.03;;;0.70;47.70;;;;;;5115022;28;20027;-20
2022/03/23 05:00:22;;;;;;;18.65;8.52;;;0.70;47.20;;;;;;5117329;28;20368;-20
2022/03/23 05:02:51;;;;;;;17.65;9.15;;;0.70;47.10;;;;;;5116084;28;20031;-20
2022/03/23 05:05:18;;;;;;;22.60;12.40;;;0.70;47.50;;;;;;5117445;28;20027;-20
2022/03/23 05:07:45;;;;;;;14.32;7.75;;;0.60;47.60;;;;;;5117443;28;20031;-20
2022/03/23 05:10:12;;;;;;;27.63;14.68;;;0.60;47.30;;;;;;5117543;28;20068;-20
2022/03/23 05:12:40;;;;;;;19.27;10.60;;;0.70;48.00;;;;;;5117625;28;20029;-20
2022/03/23 05:15:08;;;;;;;22.20;11.13;;;0.70;48.70;;;;;;5117580;28;20099;-20
2022/03/23 05:17:36;;;;;;;25.38;12.95;;;0.70;48.10;;;;;;5117078;28;20039;-21
2022/03/23 05:20:04;;;;;;;14.68;7.88;;;0.70;48.70;;;;;;5117677;28;20028;-20
2022/03/23 05:22:31;;;;;;;11.65;5.85;;;0.70;48.40;;;;;;5116841;28;20057;-21
2022/03/23 05:24:58;;;;;;;10.20;5.05;;;0.80;47.70;;;;;;5116984;28;20109;-20
2022/03/23 05:27:24;;;;;;;18.13;8.73;;;0.80;47.20;;;;;;5116949;28;20050;-20
2022/03/23 05:29:50;;;;;;;12.85;6.38;;;0.80;47.70;;;;;;5117011;28;20064;-20
2022/03/23 05:32:16;;;;;;;11.30;6.30;;;0.80;47.90;;;;;;5117145;28;20027;-20
2022/03/23 05:34:46;;;;;;;22.48;12.85;;;0.90;48.10;;;;;;5116901;28;20577;-21
2022/03/23 05:37:13;;;;;;;17.63;8.25;;;0.90;47.10;;;;;;5117132;28;20020;-20
2022/03/23 05:39:40;;;;;;;19.60;10.25;;;0.90;49.00;;;;;;5116835;28;20038;-20
2022/03/23 05:42:07;;;;;;;15.98;8.50;;;1.00;47.60;;;;;;5115504;28;20028;-20
2022/03/23 05:44:34;;;;;;;27.88;14.52;;;1.00;48.40;;;;;;5115122;28;20090;-20
2022/03/23 05:47:01;;;;;;;25.60;13.77;;;1.10;47.60;;;;;;5117309;28;20024;-20
2022/03/23 05:49:27;;;;;;;25.10;14.00;;;1.20;47.20;;;;;;5116880;27;20019;-21
2022/03/23 05:51:53;;;;;;;15.95;9.13;;;1.30;48.40;;;;;;5116612;28;20015;-20
2022/03/23 05:54:20;;;;;;;22.67;10.90;;;1.40;48.70;;;;;;5116305;28;20499;-21
2022/03/23 05:56:46;;;;;;;18.92;11.27;;;1.50;47.50;;;;;;5116772;28;20076;-21
2022/03/23 05:59:12;;;;;;;14.93;7.28;;;1.60;47.70;;;;;;5116683;28;20032;-20
2022/03/23 06:01:38;;;;;;;24.40;11.05;;;1.80;47.30;;;;;;5116998;28;20132;-20
2022/03/23 06:04:04;;;;;;;17.73;8.40;;;1.90;47.20;;;;;;5116137;27;20078;-20
2022/03/23 06:06:30;;;;;;;16.45;8.25;;;2.10;47.30;;;;;;5116017;28;20028;-22
2022/03/23 06:08:56;;;;;;;15.80;9.35;;;2.30;47.90;;;;;;5115802;28;20098;-20
2022/03/23 06:11:21;;;;;;;16.90;8.60;;;2.40;47.50;;;;;;5115836;28;20036;-20
2022/03/23 06:13:49;;;;;;;18.25;9.50;;;2.60;46.70;;;;;;5116162;28;20028;-20
2022/03/23 06:16:16;;;;;;;17.60;9.45;;;2.80;46.70;;;;;;5115912;28;20107;-21
2022/03/23 06:18:42;;;;;;;21.00;10.95;;;3.00;46.30;;;;;;5116339;28;20136;-20
2022/03/23 06:21:08;;;;;;;15.75;8.30;;;3.20;46.20;;;;;;5114817;28;20031;-20
2022/03/23 06:23:34;;;;;;;16.95;8.43;;;3.40;45.90;;;;;;5114991;28;20028;-20
2022/03/23 06:26:03;;;;;;;17.15;9.52;;;3.60;46.10;;;;;;5116068;28;20498;-20
2022/03/23 06:28:29;;;;;;;14.25;8.38;;;3.80;46.00;;;;;;5115675;28;20065;-20
2022/03/23 06:30:55;;;;;;;15.55;7.50;;;4.00;45.70;;;;;;5115148;28;20032;-20
2022/03/23 06:33:21;;;;;;;20.50;9.10;;;4.20;44.80;;;;;;5116082;28;20015;-20
2022/03/23 06:35:48;;;;;;;14.18;7.78;;;4.40;45.50;;;;;;5115669;28;20027;-20
2022/03/23 06:38:14;;;;;;;17.80;10.18;;;4.60;45.10;;;;;;5115901;28;20027;-21
2022/03/23 06:40:40;;;;;;;17.10;8.60;;;4.80;45.30;;;;;;5116119;28;20074;-20
2022/03/23 06:43:06;;;;;;;13.38;7.90;;;5.00;45.20;;;;;;5115825;28;20067;-20
2022/03/23 06:45:32;;;;;;;16.77;9.50;;;5.20;45.70;;;;;;5115548;28;20069;-20
2022/03/23 06:47:58;;;;;;;16.13;8.13;;;5.40;45.90;;;;;;5115354;28;20085;-20
2022/03/23 06:50:24;;;;;;;19.65;10.00;;;5.60;44.80;;;;;;5115317;28;20019;-21
2022/03/23 06:52:51;;;;;;;16.95;9.73;;;5.90;44.90;;;;;;5115362;28;20035;-20
2022/03/23 06:55:17;;;;;;;16.08;8.80;;;6.00;44.30;;;;;;5115554;28;20069;-20
2022/03/23 06:57:42;;;;;;;14.18;7.82;;;6.30;44.60;;;;;;5115284;28;20024;-20
2022/03/23 07:00:13;;;;;;;18.55;9.07;;;6.50;44.50;;;;;;5115234;28;20114;-20
2022/03/23 07:02:41;;;;;;;21.05;13.48;;;6.70;44.00;;;;;;5115247;28;20490;-20
2022/03/23 07:05:08;;;;;;;17.73;9.70;;;6.90;43.60;;;;;;5115039;28;20031;-20
2022/03/23 07:07:36;;;;;;;46.20;24.58;;;7.10;43.30;;;;;;5115079;28;20488;-20
2022/03/23 07:10:04;;;;;;;17.27;9.40;;;7.40;43.20;;;;;;5115199;28;20035;-20
2022/03/23 07:12:31;;;;;;;16.33;8.82;;;7.60;42.80;;;;;;5115121;28;20176;-20
2022/03/23 07:14:57;;;;;;;13.85;7.43;;;7.80;42.70;;;;;;5115601;28;20024;-20
2022/03/23 07:17:23;;;;;;;15.82;7.18;;;8.10;42.50;;;;;;5115267;28;20048;-20
2022/03/23 07:19:50;;;;;;;12.82;6.85;;;8.30;42.50;;;;;;5115160;28;20020;-20
2022/03/23 07:22:16;;;;;;;18.42;10.40;;;8.50;42.20;;;;;;5114362;28;20081;-20
2022/03/23 07:24:45;;;;;;;16.52;9.45;;;8.70;42.00;;;;;;5114655;28;20475;-20
2022/03/23 07:27:11;;;;;;;15.38;8.57;;;8.90;41.80;;;;;;5114979;28;20049;-20
2022/03/23 07:29:39;;;;;;;17.63;9.95;;;9.20;41.60;;;;;;5114571;28;20441;-20
2022/03/23 07:32:05;;;;;;;14.20;7.93;;;9.40;41.40;;;;;;5114909;28;20036;-20
2022/03/23 07:34:31;;;;;;;12.23;7.35;;;9.60;41.30;;;;;;5115386;28;20036;-20
2022/03/23 07:36:57;;;;;;;12.98;6.70;;;9.90;40.90;;;;;;5114782;28;20030;-20
2022/03/23 07:39:25;;;;;;;14.90;8.52;;;10.10;40.60;;;;;;5114478;28;20066;-19
2022/03/23 07:41:53;;;;;;;13.93;7.18;;;10.30;40.80;;;;;;5114473;28;20463;-19
2022/03/23 07:44:21;;;;;;;14.55;6.88;;;10.50;40.50;;;;;;5114026;28;20031;-20
2022/03/23 07:46:47;;;;;;;13.75;7.78;;;10.80;40.20;;;;;;5114324;28;20035;-19
2022/03/23 07:49:14;;;;;;;14.98;8.32;;;11.00;40.00;;;;;;5114208;28;20024;-19
2022/03/23 07:51:41;;;;;;;15.75;7.75;;;11.20;39.80;;;;;;5114564;28;20034;-19
2022/03/23 07:54:07;;;;;;;15.68;8.55;;;11.40;39.60;;;;;;5114193;28;20019;-19
2022/03/23 07:56:34;;;;;;;16.33;7.63;;;11.70;39.30;;;;;;5113959;28;20024;-19
2022/03/23 07:59:00;;;;;;;15.43;7.30;;;11.90;38.90;;;;;;5112903;28;20036;-19
2022/03/23 08:01:26;;;;;;;14.07;7.78;;;12.10;38.80;;;;;;5114430;28;20137;-19
2022/03/23 08:03:52;;;;;;;14.95;8.50;;;12.40;38.60;;;;;;5114154;28;20589;-19
2022/03/23 08:06:18;;;;;;;14.55;8.18;;;12.50;38.30;;;;;;5114362;28;20486;-20
2022/03/23 08:08:44;;;;;;;12.93;6.65;;;12.80;38.00;;;;;;5112822;28;20035;-20
2022/03/23 08:11:11;;;;;;;12.30;7.18;;;13.00;37.40;;;;;;5113947;28;20036;-19
2022/03/23 08:13:37;;;;;;;14.65;7.65;;;13.30;37.30;;;;;;5114187;28;20031;-20
2022/03/23 08:16:05;;;;;;;14.13;7.03;;;13.50;36.80;;;;;;5113898;28;20398;-20
2022/03/23 08:18:33;;;;;;;13.38;8.00;;;13.70;36.80;;;;;;5113382;28;20174;-20
2022/03/23 08:21:00;;;;;;;14.43;8.65;;;13.90;36.80;;;;;;5114063;28;20131;-19
2022/03/23 08:23:26;;;;;;;18.45;8.65;;;14.20;36.20;;;;;;5113729;28;20027;-19
2022/03/23 08:25:52;;;;;;;13.77;8.23;;;14.30;35.80;;;;;;5113666;28;20098;-19
2022/03/23 08:28:18;;;;;;;12.07;7.63;;;14.50;35.80;;;;;;5113603;28;20051;-21
2022/03/23 08:30:45;;;;;;;11.02;6.07;;;14.60;35.40;;;;;;5112382;28;20036;-19
2022/03/23 08:33:11;;;;;;;15.23;8.70;;;14.80;35.40;;;;;;5113245;28;20019;-19
2022/03/23 08:35:39;;;;;;;16.00;9.25;;;14.90;34.80;;;;;;5113604;28;20023;-19
2022/03/23 08:38:06;;;;;;;14.63;8.85;;;15.20;34.80;;;;;;5113634;28;20387;-19
2022/03/23 08:40:33;;;;;;;15.38;8.45;;;15.30;34.80;;;;;;5113209;28;20536;-19
2022/03/23 08:42:59;;;;;;;15.55;8.93;;;15.50;34.30;;;;;;5113456;28;20047;-20
2022/03/23 08:45:26;;;;;;;13.27;8.57;;;15.70;33.60;;;;;;5113495;28;20078;-19
2022/03/23 08:47:52;;;;;;;10.02;6.55;;;16.00;33.40;;;;;;5113514;28;20053;-20
2022/03/23 08:50:18;;;;;;;8.32;5.97;;;16.20;33.30;;;;;;5113589;28;20024;-19
2022/03/23 08:52:45;;;;;;;9.75;6.40;;;16.40;32.90;;;;;;5113428;28;20387;-20
2022/03/23 08:55:14;;;;;;;7.80;5.03;;;16.60;32.60;;;;;;5113750;28;20023;-19
2022/03/23 08:57:42;;;;;;;11.65;7.35;;;16.90;32.60;;;;;;5113671;28;20080;-19
2022/03/23 09:00:11;;;;;;;11.10;6.32;;;17.20;32.60;;;;;;5113425;28;20160;-19
2022/03/23 09:02:38;;;;;;;8.80;5.50;;;17.50;31.60;;;;;;5113229;28;20372;-20
2022/03/23 09:05:09;;;;;;;13.45;8.07;;;17.90;31.90;;;;;;5113041;28;20490;-19
2022/03/23 09:07:37;;;;;;;7.25;4.82;;;18.10;31.10;;;;;;5113360;28;20111;-20
2022/03/23 09:10:05;;;;;;;8.50;5.03;;;18.50;30.90;;;;;;5113546;28;20122;-19
2022/03/23 09:12:31;;;;;;;8.10;4.80;;;18.80;30.60;;;;;;5113008;28;20122;-19
2022/03/23 09:14:57;;;;;;;10.93;5.90;;;19.10;30.60;;;;;;5113795;28;20464;-19
2022/03/23 09:17:23;;;;;;;9.05;5.53;;;19.40;29.90;;;;;;5113334;28;20156;-19
2022/03/23 09:19:49;;;;;;;12.10;7.20;;;19.80;29.60;;;;;;5113457;28;20045;-20
2022/03/23 09:22:15;;;;;;;9.90;6.43;;;20.10;28.60;;;;;;5113041;28;20062;-20
2022/03/23 09:24:41;;;;;;;9.43;6.43;;;20.50;28.70;;;;;;5113181;28;20052;-19
2022/03/23 09:27:07;;;;;;;9.20;5.55;;;20.70;28.80;;;;;;5113009;28;20032;-19
2022/03/23 09:29:33;;;;;;;7.63;5.32;;;21.10;28.70;;;;;;5113416;28;20019;-20
2022/03/23 09:31:59;;;;;;;8.57;5.88;;;21.40;28.50;;;;;;5113148;28;20123;-19
2022/03/23 09:34:25;;;;;;;8.00;5.05;;;21.70;28.10;;;;;;5113027;28;20062;-19
2022/03/23 09:39:37;;;;;;;10.77;6.03;;;22.30;27.40;;;;;;5113468;28;20467;-19
2022/03/23 09:42:05;;;;;;;11.82;7.22;;;22.60;26.90;;;;;;5113018;28;20019;-19
2022/03/23 09:44:34;;;;;;;11.15;7.22;;;22.90;26.30;;;;;;5114801;28;20031;-19
2022/03/23 09:47:02;;;;;;;9.15;5.75;;;23.10;26.20;;;;;;5116959;28;20031;-19
2022/03/23 09:49:28;;;;;;;9.32;6.18;;;23.30;26.30;;;;;;5116729;28;20035;-19
2022/03/23 09:51:54;;;;;;;8.27;5.53;;;23.50;25.80;;;;;;5116797;28;20035;-20
2022/03/23 09:54:21;;;;;;;11.45;7.05;;;23.70;26.00;;;;;;5116327;28;20034;-20
2022/03/23 09:56:49;;;;;;;12.18;6.85;;;24.00;25.30;;;;;;5116767;28;20508;-20
2022/03/23 09:59:15;;;;;;;9.38;6.53;;;24.20;25.40;;;;;;5116530;28;20047;-20
2022/03/23 10:01:47;;;;;;;9.93;6.72;;;24.40;24.90;;;;;;5116704;28;20387;-20
2022/03/23 10:04:13;;;;;;;8.10;5.43;;;24.60;24.50;;;;;;5116368;28;20039;-19
2022/03/23 10:07:15;;;;;;;11.30;7.45;;;24.80;25.10;;;;;;5116170;28;20023;-19
2022/03/23 10:09:59;;;;;;;8.75;5.97;;;24.90;23.10;;;;;;5116593;28;20157;-19
2022/03/23 10:12:49;;;;;;;11.73;8.35;;;25.20;24.70;;;;;;5116021;28;20027;-19
2022/03/23 10:15:37;;;;;;;11.52;7.40;;;25.50;22.90;;;;;;5116143;28;20038;-20
2022/03/23 10:18:33;;;;;;;11.23;6.82;;;25.60;22.50;;;;;;5115794;28;20044;-20
2022/03/23 10:20:59;;;;;;;9.18;5.68;;;25.80;22.10;;;;;;5114828;28;20059;-19
2022/03/23 10:23:26;;;;;;;8.98;6.55;;;26.00;23.80;;;;;;5115987;28;20074;-19
2022/03/23 10:25:52;;;;;;;11.57;6.45;;;26.20;23.80;;;;;;5115948;28;20070;-20
2022/03/23 10:28:19;;;;;;;6.85;4.93;;;26.40;23.70;;;;;;5115673;28;20035;-20
2022/03/23 10:30:46;;;;;;;8.68;6.25;;;26.70;23.70;;;;;;5115873;28;20501;-20
2022/03/23 10:33:22;;;;;;;9.85;5.70;;;26.90;23.60;;;;;;5115613;28;20475;-20
2022/03/23 10:35:49;;;;;;;7.38;4.90;;;27.20;22.20;;;;;;5116130;28;20054;-19
2022/03/23 10:38:21;;;;;;;12.80;8.07;;;27.50;23.30;;;;;;5116337;28;20038;-19
2022/03/23 10:40:50;;;;;;;9.10;6.10;;;27.90;22.70;;;;;;5115753;27;20024;-19
2022/03/23 10:43:20;;;;;;;8.70;5.75;;;28.10;22.70;;;;;;5115538;28;20028;-19
2022/03/23 10:45:47;;;;;;;10.35;7.28;;;28.40;22.50;;;;;;5115874;28;20028;-19
2022/03/23 10:48:20;;;;;;;7.88;5.70;;;28.60;22.50;;;;;;5115428;28;20042;-19
2022/03/23 10:50:57;;;;;;;9.88;7.07;;;28.80;22.20;;;;;;5115452;28;20106;-19
2022/03/23 10:53:44;;;;;;;10.20;6.50;;;29.00;21.80;;;;;;5115798;28;20035;-19
2022/03/23 10:56:10;;;;;;;11.40;7.75;;;29.20;20.80;;;;;;5115177;28;20027;-19
2022/03/23 10:58:37;;;;;;;10.38;6.80;;;29.30;21.20;;;;;;5115438;28;20027;-19
2022/03/23 11:01:06;;;;;;;10.52;6.68;;;29.40;21.10;;;;;;5115516;28;20035;-19
2022/03/23 11:03:43;;;;;;;8.27;5.25;;;29.50;21.40;;;;;;5115720;28;20098;-19
2022/03/23 11:06:14;;;;;;;9.15;6.13;;;29.60;20.70;;;;;;5115519;28;20100;-19
2022/03/23 11:08:44;;;;;;;8.43;5.80;;;29.80;21.00;;;;;;5115087;28;20019;-19
2022/03/23 11:16:54;;;;;;;9.30;5.78;;;30.40;21.20;;;;;;5114599;28;20122;-20
2022/03/23 11:19:23;;;;;;;6.68;5.00;;;30.80;20.80;;;;;;5114812;28;20437;-19
2022/03/23 11:22:01;;;;;;;8.77;5.60;;;31.10;20.70;;;;;;5114806;27;20035;-19
2022/03/23 11:24:29;;;;;;;12.18;6.32;;;31.40;19.90;;;;;;5114766;28;20028;-19
2022/03/23 11:26:55;;;;;;;8.23;6.20;;;31.50;20.30;;;;;;5114715;28;20031;-19
2022/03/23 11:29:22;;;;;;;9.88;6.15;;;31.60;20.00;;;;;;5113763;28;20144;-19
2022/03/23 11:31:49;;;;;;;8.40;5.93;;;31.70;20.00;;;;;;5114963;28;20027;-19
2022/03/23 11:34:19;;;;;;;10.73;6.55;;;31.90;19.90;;;;;;5114268;28;20571;-20
2022/03/23 11:36:48;;;;;;;6.32;4.90;;;32.00;19.70;;;;;;5114647;28;20023;-19
2022/03/23 11:39:14;;;;;;;12.52;6.40;;;32.20;19.80;;;;;;5114426;28;20077;-19
2022/03/23 11:41:43;;;;;;;6.97;5.03;;;32.40;19.70;;;;;;5114401;28;20031;-19
2022/03/23 11:44:17;;;;;;;7.88;6.00;;;32.60;19.70;;;;;;5114323;28;20083;-19
2022/03/23 11:46:45;;;;;;;7.80;5.45;;;32.90;19.50;;;;;;5114721;28;20055;-19
2022/03/23 11:49:14;;;;;;;7.93;6.30;;;33.10;19.30;;;;;;5114271;28;20028;-19
2022/03/23 11:51:49;;;;;;;8.45;5.03;;;33.40;18.90;;;;;;5114931;28;20039;-19
2022/03/23 11:55:37;;;;;;;7.85;5.80;;;33.50;18.50;;;;;;5114003;28;20140;-19
2022/03/23 11:57:20;;;;;;;7.97;5.57;;;33.60;18.70;;;;;;5114033;28;20487;-19
2022/03/23 11:59:47;;;;;;;9.13;6.50;;;33.90;18.70;;;;;;5114483;28;20102;-19
2022/03/23 12:02:18;;;;;;;10.75;6.63;;;34.00;18.30;;;;;;5114218;28;20027;-19
2022/03/23 12:04:44;;;;;;;8.23;5.72;;;34.00;17.60;;;;;;5113939;28;20023;-19
2022/03/23 12:07:11;;;;;;;9.20;6.10;;;34.00;17.90;;;;;;5113198;28;20027;-19
2022/03/23 12:09:41;;;;;;;9.85;7.00;;;33.90;17.80;;;;;;5114000;28;20035;-19
2022/03/23 12:12:13;;;;;;;8.05;6.13;;;33.90;17.70;;;;;;5112819;28;20019;-19
2022/03/23 12:14:42;;;;;;;7.85;5.65;;;33.70;17.50;;;;;;5113794;28;20028;-19
2022/03/23 12:17:15;;;;;;;9.02;6.60;;;33.80;17.90;;;;;;5113611;28;20051;-19
2022/03/23 12:20:05;;;;;;;9.02;6.25;;;33.90;17.50;;;;;;5114109;28;20053;-20
2022/03/23 12:22:33;;;;;;;8.80;5.80;;;34.00;17.10;;;;;;5113980;28;20022;-19
2022/03/23 12:25:44;;;;;;;9.13;6.25;;;34.20;17.50;;;;;;5114157;28;20023;-19
2022/03/23 12:28:48;;;;;;;8.07;6.03;;;34.30;16.70;;;;;;5113736;28;20040;-19
2022/03/23 12:31:15;;;;;;;9.30;6.00;;;34.40;16.30;;;;;;5113676;28;20038;-20
2022/03/23 12:34:03;;;;;;;6.88;4.88;;;34.50;17.60;;;;;;5113557;28;20365;-20
2022/03/23 12:36:56;;;;;;;7.22;5.22;;;34.60;16.70;;;;;;5113697;28;20024;-19
2022/03/23 12:39:35;;;;;;;10.07;6.03;;;34.80;17.50;;;;;;5113451;28;20093;-19
2022/03/23 12:42:23;;;;;;;7.53;6.07;;;35.10;16.90;;;;;;5112419;28;20111;-20
2022/03/23 12:45:03;;;;;;;7.72;4.80;;;35.20;16.90;;;;;;5114083;28;20031;-19
2022/03/23 12:47:32;;;;;;;8.07;4.63;;;35.40;16.80;;;;;;5113560;28;20028;-19
2022/03/23 12:58:34;;;;;;;7.15;5.00;;;36.50;16.90;;;;;;5113562;28;20038;-19
2022/03/23 13:01:18;;;;;;;6.15;4.78;;;36.60;16.50;;;;;;5112131;28;20031;-19
2022/03/23 13:03:44;;;;;;;7.70;6.07;;;36.70;16.10;;;;;;5113251;28;20024;-19
2022/03/23 13:06:13;;;;;;;8.77;6.07;;;36.80;16.30;;;;;;5113315;28;20036;-19
2022/03/23 13:08:50;;;;;;;8.77;5.95;;;36.70;16.10;;;;;;5113326;28;20480;-19
2022/03/23 13:11:26;;;;;;;9.70;6.47;;;36.50;16.00;;;;;;5113674;28;20031;-19
2022/03/23 13:13:55;;;;;;;8.73;6.75;;;36.40;15.90;;;;;;5113295;28;20559;-19
2022/03/23 13:16:30;;;;;;;7.32;5.18;;;36.30;16.00;;;;;;5113108;28;20040;-19